createdAt,value
2019-05-17T00:00:58.581Z,27.42
2019-05-17T00:03:28.848Z,27.52
2019-05-17T00:05:58.956Z,28.20
2019-05-17T00:08:34.333Z,25.50
2019-05-17T00:11:00.712Z,28.07
2019-05-17T00:13:30.872Z,27.67
2019-05-17T00:16:01.190Z,30.45
2019-05-17T00:18:31.276Z,29.07
2019-05-17T00:21:01.327Z,27.22
2019-05-17T00:23:31.411Z,28.15
2019-05-17T00:26:01.519Z,27.90
2019-05-17T00:28:31.704Z,29.65
2019-05-17T00:31:01.791Z,29.82
2019-05-17T00:33:31.899Z,33.67
2019-05-17T00:36:01.853Z,28.05
2019-05-17T00:38:44.812Z,29.02
2019-05-17T00:41:03.605Z,29.10
2019-05-17T00:43:33.583Z,28.50
2019-05-17T00:46:03.673Z,27.75
2019-05-17T00:48:33.785Z,27.67
2019-05-17T00:51:03.883Z,27.62
2019-05-17T00:53:36.171Z,30.55
2019-05-17T00:56:06.633Z,28.17
2019-05-17T00:58:37.184Z,28.03
2019-05-17T01:01:08.223Z,28.80
2019-05-17T01:03:38.750Z,25.35
2019-05-17T01:06:08.835Z,26.70
2019-05-17T01:08:38.896Z,28.67
2019-05-17T01:11:09.096Z,29.75
2019-05-17T01:13:39.215Z,30.82
2019-05-17T01:16:09.329Z,30.77
2019-05-17T01:18:39.285Z,29.02
2019-05-17T01:21:09.322Z,28.47
2019-05-17T01:23:39.409Z,30.70
2019-05-17T01:26:09.525Z,30.95
2019-05-17T01:28:39.616Z,31.60
2019-05-17T01:31:09.655Z,33.30
2019-05-17T01:33:39.681Z,30.55
2019-05-17T01:36:09.723Z,32.40
2019-05-17T01:38:39.744Z,32.80
2019-05-17T01:41:09.856Z,29.63
2019-05-17T01:43:39.879Z,33.30
2019-05-17T01:46:09.996Z,32.55
2019-05-17T01:48:40.018Z,32.58
2019-05-17T01:51:10.131Z,32.53
2019-05-17T01:53:40.152Z,32.50
2019-05-17T01:56:10.268Z,34.55
2019-05-17T01:58:40.288Z,32.88
2019-05-17T02:01:10.408Z,31.20
2019-05-17T02:03:40.425Z,34.27
2019-05-17T02:06:10.556Z,33.42
2019-05-17T02:08:40.569Z,32.30
2019-05-17T02:11:10.610Z,34.30
2019-05-17T02:13:40.651Z,33.60
2019-05-17T02:16:10.837Z,32.05
2019-05-17T02:18:40.880Z,31.07
2019-05-17T02:21:11.041Z,32.50
2019-05-17T02:23:41.152Z,33.23
2019-05-17T02:26:11.643Z,30.82
2019-05-17T02:28:41.758Z,32.15
2019-05-17T02:31:13.325Z,31.68
2019-05-17T02:33:43.616Z,34.85
2019-05-17T02:36:14.396Z,35.43
2019-05-17T02:38:44.723Z,33.53
2019-05-17T02:41:14.813Z,34.18
2019-05-17T02:43:44.922Z,33.83
2019-05-17T02:46:14.942Z,34.38
2019-05-17T02:48:45.058Z,34.55
2019-05-17T02:51:15.141Z,32.60
2019-05-17T02:53:45.257Z,35.73
2019-05-17T02:56:15.357Z,34.60
2019-05-17T02:58:45.441Z,39.45
2019-05-17T03:01:15.552Z,36.42
2019-05-17T03:03:45.520Z,33.28
2019-05-17T03:06:15.741Z,37.67
2019-05-17T03:08:45.837Z,35.05
2019-05-17T03:11:15.872Z,39.60
2019-05-17T03:13:45.893Z,36.55
2019-05-17T03:16:16.014Z,39.20
2019-05-17T03:18:46.106Z,33.23
2019-05-17T03:21:16.213Z,35.65
2019-05-17T03:23:46.313Z,37.50
2019-05-17T03:26:16.416Z,36.42
2019-05-17T03:28:46.461Z,34.55
2019-05-17T03:31:17.776Z,36.03
2019-05-17T03:33:48.559Z,32.83
2019-05-17T03:36:25.488Z,37.10
2019-05-17T03:41:27.878Z,34.90
2019-05-17T03:43:54.240Z,33.78
2019-05-17T03:46:24.401Z,33.67
2019-05-17T03:48:54.513Z,38.00
2019-05-17T03:51:24.539Z,33.70
2019-05-17T03:53:54.584Z,36.28
2019-05-17T03:56:24.800Z,38.40
2019-05-17T03:58:54.773Z,36.30
2019-05-17T04:01:24.859Z,38.17
2019-05-17T04:03:54.989Z,41.37
2019-05-17T04:06:25.085Z,38.15
2019-05-17T04:08:55.128Z,32.93
2019-05-17T04:11:31.338Z,36.88
2019-05-17T04:13:56.881Z,36.25
2019-05-17T04:16:26.921Z,35.50
2019-05-17T04:18:56.939Z,41.28
2019-05-17T04:21:26.984Z,35.78
2019-05-17T04:23:57.081Z,36.83
2019-05-17T04:26:27.189Z,37.13
2019-05-17T04:28:57.225Z,36.65
2019-05-17T04:31:30.535Z,34.03
2019-05-17T04:34:02.664Z,33.92
2019-05-17T04:36:32.300Z,36.25
2019-05-17T04:39:02.621Z,34.78
2019-05-17T04:41:44.928Z,34.50
2019-05-17T04:44:04.535Z,34.03
2019-05-17T04:46:34.730Z,32.45
2019-05-17T04:49:04.768Z,35.52
2019-05-17T04:51:34.880Z,34.15
2019-05-17T04:54:04.992Z,31.77
2019-05-17T04:56:35.093Z,35.98
2019-05-17T04:59:05.208Z,33.15
2019-05-17T05:01:35.297Z,33.45
2019-05-17T05:04:05.416Z,34.90
2019-05-17T05:06:35.687Z,32.75
2019-05-17T05:09:07.380Z,32.95
2019-05-17T05:11:52.006Z,32.17
2019-05-17T05:14:09.135Z,30.50
2019-05-17T05:16:39.084Z,34.80
2019-05-17T05:19:09.056Z,37.67
2019-05-17T05:21:39.084Z,30.82
2019-05-17T05:24:11.417Z,35.98
2019-05-17T05:26:42.472Z,34.10
2019-05-17T05:29:12.937Z,33.40
2019-05-17T05:31:42.975Z,33.45
2019-05-17T05:34:12.993Z,32.67
2019-05-17T05:36:43.108Z,32.03
2019-05-17T05:39:13.139Z,31.93
2019-05-17T05:41:43.256Z,32.50
2019-05-17T05:44:13.370Z,40.17
2019-05-17T05:46:43.415Z,39.42
2019-05-17T05:49:13.523Z,31.12
2019-05-17T05:51:43.654Z,29.52
2019-05-17T05:54:13.749Z,28.45
2019-05-17T05:56:43.836Z,28.45
2019-05-17T05:59:13.864Z,28.30
2019-05-17T06:01:43.987Z,25.27
2019-05-17T06:04:14.007Z,27.37
2019-05-17T06:06:44.132Z,26.15
2019-05-17T06:09:14.168Z,27.45
2019-05-17T06:11:44.245Z,27.10
2019-05-17T06:14:14.270Z,24.82
2019-05-17T06:16:47.493Z,28.25
2019-05-17T06:19:16.115Z,25.40
2019-05-17T06:21:46.161Z,25.02
2019-05-17T06:24:16.262Z,26.25
2019-05-17T06:26:46.251Z,25.23
2019-05-17T06:29:16.277Z,27.55
2019-05-17T06:31:46.329Z,24.75
2019-05-17T06:34:16.280Z,27.10
2019-05-17T06:36:46.407Z,23.05
2019-05-17T06:39:16.527Z,25.95
2019-05-17T06:41:46.620Z,28.65
2019-05-17T06:44:16.739Z,23.75
2019-05-17T06:46:46.699Z,24.67
2019-05-17T06:49:16.685Z,22.85
2019-05-17T06:51:46.710Z,23.57
2019-05-17T06:54:16.832Z,22.80
2019-05-17T06:56:46.851Z,21.77
2019-05-17T06:59:16.950Z,22.93
2019-05-17T07:01:47.052Z,22.75
2019-05-17T07:04:19.236Z,21.65
2019-05-17T07:06:50.409Z,21.33
2019-05-17T07:09:20.523Z,21.35
2019-05-17T07:11:51.348Z,18.95
2019-05-17T07:14:21.493Z,19.05
2019-05-17T07:16:51.456Z,19.52
2019-05-17T07:19:21.522Z,18.55
2019-05-17T07:21:51.560Z,20.97
2019-05-17T07:24:21.618Z,16.80
2019-05-17T07:26:51.671Z,18.73
2019-05-17T07:29:21.724Z,16.20
2019-05-17T07:31:51.795Z,15.48
2019-05-17T07:34:21.834Z,14.03
2019-05-17T07:36:51.904Z,17.45
2019-05-17T07:39:21.925Z,16.65
2019-05-17T07:41:51.971Z,13.45
2019-05-17T07:44:22.000Z,12.25
2019-05-17T07:46:52.229Z,14.47
2019-05-17T07:49:22.272Z,15.23
2019-05-17T07:51:52.439Z,13.48
2019-05-17T07:54:22.592Z,11.57
2019-05-17T07:56:52.707Z,12.70
2019-05-17T07:59:22.745Z,11.93
2019-05-17T08:01:52.939Z,13.60
2019-05-17T08:04:22.888Z,11.40
2019-05-17T08:06:52.957Z,10.38
2019-05-17T08:09:23.047Z,12.15
2019-05-17T08:11:53.200Z,11.50
2019-05-17T08:14:29.971Z,12.90
2019-05-17T08:16:54.846Z,12.05
2019-05-17T08:19:24.893Z,10.03
2019-05-17T08:21:54.987Z,12.40
2019-05-17T08:24:25.031Z,9.55
2019-05-17T08:26:55.190Z,12.18
2019-05-17T08:29:25.303Z,12.80
2019-05-17T08:31:55.252Z,11.25
2019-05-17T08:34:25.364Z,10.38
2019-05-17T08:36:55.388Z,10.63
2019-05-17T08:39:25.445Z,13.50
2019-05-17T08:41:55.402Z,11.30
2019-05-17T08:44:25.367Z,10.48
2019-05-17T08:46:55.387Z,9.90
2019-05-17T08:49:25.504Z,11.73
2019-05-17T08:51:55.599Z,20.20
2019-05-17T08:54:25.650Z,21.57
2019-05-17T08:56:55.669Z,9.08
2019-05-17T08:59:25.717Z,12.15
2019-05-17T09:01:55.809Z,15.53
2019-05-17T09:04:25.988Z,10.05
2019-05-17T09:06:56.230Z,14.45
2019-05-17T09:09:26.223Z,13.35
2019-05-17T09:11:56.243Z,10.58
2019-05-17T09:14:26.423Z,12.23
2019-05-17T09:16:56.512Z,12.70
2019-05-17T09:19:26.552Z,9.43
2019-05-17T09:21:56.603Z,12.33
2019-05-17T09:24:26.810Z,12.23
2019-05-17T09:26:56.852Z,12.93
2019-05-17T09:29:26.877Z,12.60
2019-05-17T09:31:56.930Z,11.20
2019-05-17T09:34:26.948Z,10.43
2019-05-17T09:36:56.996Z,10.08
2019-05-17T09:39:29.379Z,10.90
2019-05-17T09:41:59.561Z,11.97
2019-05-17T09:44:29.951Z,10.50
2019-05-17T09:47:00.104Z,11.50
2019-05-17T09:49:30.196Z,13.68
2019-05-17T09:52:00.273Z,10.23
2019-05-17T09:54:41.390Z,11.63
2019-05-17T09:57:02.104Z,13.58
2019-05-17T09:59:32.131Z,11.35
2019-05-17T10:02:02.242Z,8.78
2019-05-17T10:04:32.285Z,6.92
2019-05-17T10:07:02.404Z,7.55
2019-05-17T10:09:32.631Z,9.43
2019-05-17T10:12:02.715Z,8.70
2019-05-17T10:14:32.927Z,7.87
2019-05-17T10:17:02.998Z,7.97
2019-05-17T10:19:33.041Z,9.85
2019-05-17T10:22:03.128Z,8.10
2019-05-17T10:24:37.995Z,10.43
2019-05-17T10:27:04.885Z,9.43
2019-05-17T10:29:34.991Z,6.92
2019-05-17T10:32:05.148Z,7.42
2019-05-17T10:34:35.259Z,9.48
2019-05-17T10:37:05.438Z,7.00
2019-05-17T10:39:35.519Z,8.78
2019-05-17T10:42:05.642Z,9.35
2019-05-17T10:44:46.335Z,7.17
2019-05-17T10:47:09.938Z,8.10
2019-05-17T10:52:10.225Z,7.58
2019-05-17T10:54:40.478Z,6.97
2019-05-17T10:57:10.788Z,7.90
2019-05-17T10:59:40.889Z,6.00
2019-05-17T11:02:11.002Z,6.28
2019-05-17T11:04:41.019Z,8.40
2019-05-17T11:07:11.190Z,5.72
2019-05-17T11:09:41.255Z,6.10
2019-05-17T11:12:11.540Z,7.15
2019-05-17T11:14:50.734Z,5.35
2019-05-17T11:19:42.765Z,7.58
2019-05-17T11:22:13.067Z,6.53
2019-05-17T11:24:43.165Z,5.40
2019-05-17T11:27:13.853Z,6.90
2019-05-17T11:29:44.110Z,6.60
2019-05-17T11:32:14.244Z,7.00
2019-05-17T11:34:45.474Z,8.18
2019-05-17T11:37:15.619Z,7.92
2019-05-17T11:39:45.728Z,6.60
2019-05-17T11:42:15.813Z,5.00
2019-05-17T11:44:45.890Z,5.92
2019-05-17T11:47:15.972Z,6.85
2019-05-17T11:49:46.083Z,5.40
2019-05-17T11:52:16.172Z,6.92
2019-05-17T11:54:47.579Z,5.42
2019-05-17T11:57:17.635Z,4.78
2019-05-17T11:59:48.747Z,7.30
2019-05-17T12:02:21.474Z,5.97
2019-05-17T12:04:50.532Z,4.42
2019-05-17T12:07:21.402Z,6.15
2019-05-17T12:09:51.413Z,4.40
2019-05-17T12:12:21.464Z,6.40
2019-05-17T12:14:52.366Z,5.47
2019-05-17T12:17:22.485Z,4.80
2019-05-17T12:19:52.574Z,4.08
2019-05-17T12:22:22.622Z,4.20
2019-05-17T12:24:52.640Z,6.90
2019-05-17T12:27:22.690Z,5.15
2019-05-17T12:29:52.793Z,5.20
2019-05-17T12:32:22.827Z,6.20
2019-05-17T12:34:52.917Z,4.95
2019-05-17T12:37:22.952Z,4.83
2019-05-17T12:39:53.074Z,4.35
2019-05-17T12:42:23.096Z,5.05
2019-05-17T12:44:53.259Z,3.62
2019-05-17T12:47:23.295Z,4.53
2019-05-17T12:49:53.352Z,5.80
2019-05-17T12:52:23.347Z,3.52
2019-05-17T12:54:53.502Z,4.97
2019-05-17T12:59:53.693Z,3.37
2019-05-17T13:02:23.701Z,6.58
2019-05-17T13:04:53.853Z,6.20
2019-05-17T13:07:23.789Z,4.17
2019-05-17T13:09:53.759Z,5.90
2019-05-17T13:12:23.811Z,5.35
2019-05-17T13:14:56.984Z,3.85
2019-05-17T13:17:27.109Z,4.12
2019-05-17T13:19:57.154Z,3.08
2019-05-17T13:22:27.492Z,3.58
2019-05-17T13:24:57.605Z,3.47
2019-05-17T13:27:27.696Z,4.08
2019-05-17T13:29:57.741Z,6.47
2019-05-17T13:32:29.407Z,4.25
2019-05-17T13:34:59.472Z,2.60
2019-05-17T13:37:29.452Z,5.42
2019-05-17T13:39:59.423Z,2.33
2019-05-17T13:42:29.464Z,3.85
2019-05-17T13:44:59.468Z,2.65
2019-05-17T13:47:29.684Z,3.85
2019-05-17T13:49:59.843Z,4.72
2019-05-17T13:52:30.107Z,3.17
2019-05-17T13:55:00.571Z,3.22
2019-05-17T13:57:31.307Z,6.03
2019-05-17T14:00:02.121Z,2.30
2019-05-17T14:02:32.312Z,5.63
2019-05-17T14:05:02.403Z,3.42
2019-05-17T14:07:32.592Z,4.47
2019-05-17T14:10:02.789Z,3.17
2019-05-17T14:12:33.150Z,3.65
2019-05-17T14:15:06.152Z,4.10
2019-05-17T14:17:36.746Z,3.62
2019-05-17T14:20:08.160Z,4.12
2019-05-17T14:22:38.611Z,5.22
2019-05-17T14:25:09.293Z,6.28
2019-05-17T14:27:39.488Z,2.67
2019-05-17T14:30:11.316Z,7.15
2019-05-17T14:35:10.874Z,4.33
2019-05-17T14:37:41.088Z,4.17
2019-05-17T14:40:12.576Z,2.83
2019-05-17T14:42:42.605Z,3.70
2019-05-17T14:45:12.916Z,3.37
2019-05-17T14:47:42.932Z,4.65
2019-05-17T14:50:13.639Z,4.53
2019-05-17T14:52:43.881Z,4.03
2019-05-17T14:55:14.009Z,3.65
2019-05-17T14:57:44.170Z,4.22
2019-05-17T15:00:14.658Z,3.40
2019-05-17T15:02:44.909Z,2.20
2019-05-17T15:05:15.148Z,2.17
2019-05-17T15:07:45.470Z,2.17
2019-05-17T15:10:15.748Z,5.25
2019-05-17T15:12:45.885Z,3.33
2019-05-17T15:15:25.569Z,2.40
2019-05-17T15:17:48.103Z,6.45
2019-05-17T15:20:19.047Z,6.15
2019-05-17T15:22:51.055Z,2.05
2019-05-17T15:25:21.238Z,4.72
2019-05-17T15:27:51.601Z,3.20
2019-05-17T15:30:21.717Z,2.67
2019-05-17T15:32:52.766Z,4.45
2019-05-17T15:35:23.921Z,5.45
2019-05-17T15:37:54.696Z,1.52
2019-05-17T15:40:25.366Z,3.52
2019-05-17T15:42:55.716Z,3.27
2019-05-17T15:45:26.025Z,1.55
2019-05-17T15:47:56.283Z,1.95
2019-05-17T15:50:26.569Z,4.72
2019-05-17T15:52:57.000Z,2.62
2019-05-17T15:55:27.244Z,3.95
2019-05-17T15:57:57.490Z,3.45
2019-05-17T16:00:27.589Z,3.12
2019-05-17T16:02:57.537Z,4.00
2019-05-17T16:05:27.649Z,2.87
2019-05-17T16:07:57.733Z,2.70
2019-05-17T16:10:28.043Z,2.75
2019-05-17T16:13:03.233Z,2.30
2019-05-17T16:15:29.961Z,1.30
2019-05-17T16:18:00.038Z,1.77
2019-05-17T16:20:30.122Z,1.60
2019-05-17T16:23:00.205Z,3.37
2019-05-17T16:25:34.102Z,3.17
2019-05-17T16:28:04.161Z,1.57
2019-05-17T16:30:34.514Z,1.37
2019-05-17T16:33:04.599Z,2.25
2019-05-17T16:35:34.636Z,1.40
2019-05-17T16:38:04.723Z,7.08
2019-05-17T16:40:34.835Z,4.67
2019-05-17T16:43:17.180Z,2.05
2019-05-17T16:45:36.657Z,3.47
2019-05-17T16:48:06.768Z,1.67
2019-05-17T16:50:36.956Z,4.72
2019-05-17T16:53:07.483Z,4.87
2019-05-17T16:55:37.955Z,1.95
2019-05-17T16:58:08.409Z,1.40
2019-05-17T17:00:43.669Z,1.92
2019-05-17T17:03:14.878Z,2.95
2019-05-17T17:05:45.417Z,2.47
2019-05-17T17:08:17.616Z,3.25
2019-05-17T17:13:16.668Z,2.87
2019-05-17T17:15:46.761Z,2.30
2019-05-17T17:18:16.894Z,3.70
2019-05-17T17:20:46.906Z,2.37
2019-05-17T17:23:17.044Z,2.42
2019-05-17T17:25:47.230Z,4.10
2019-05-17T17:28:17.400Z,3.40
2019-05-17T17:30:48.691Z,1.52
2019-05-17T17:33:18.797Z,3.33
2019-05-17T17:35:50.556Z,1.47
2019-05-17T17:38:20.672Z,2.30
2019-05-17T17:40:50.784Z,3.02
2019-05-17T17:43:20.804Z,2.62
2019-05-17T17:45:50.836Z,2.12
2019-05-17T17:48:20.919Z,2.22
2019-05-17T17:50:50.955Z,1.85
2019-05-17T17:53:20.977Z,1.60
2019-05-17T17:55:51.085Z,4.03
2019-05-17T17:58:21.167Z,1.72
2019-05-17T18:00:51.216Z,1.72
2019-05-17T18:03:21.525Z,2.12
2019-05-17T18:05:51.907Z,2.40
2019-05-17T18:08:21.917Z,3.50
2019-05-17T18:10:52.024Z,2.02
2019-05-17T18:13:22.108Z,1.90
2019-05-17T18:15:52.144Z,2.67
2019-05-17T18:18:22.228Z,1.80
2019-05-17T18:20:52.526Z,3.87
2019-05-17T18:23:23.699Z,2.50
2019-05-17T18:25:54.180Z,4.10
2019-05-17T18:28:24.383Z,3.85
2019-05-17T18:30:54.748Z,1.95
2019-05-17T18:33:24.978Z,2.15
2019-05-17T18:35:54.923Z,2.80
2019-05-17T18:38:27.673Z,4.90
2019-05-17T18:40:57.763Z,2.92
2019-05-17T18:43:28.530Z,3.67
2019-05-17T18:45:58.956Z,3.08
2019-05-17T18:48:29.275Z,2.45
2019-05-17T18:50:59.519Z,1.75
2019-05-17T18:53:30.757Z,2.55
2019-05-17T18:56:00.838Z,5.00
2019-05-17T18:58:30.811Z,2.60
2019-05-17T19:01:00.901Z,2.87
2019-05-17T19:03:31.025Z,4.58
2019-05-17T19:06:01.108Z,4.83
2019-05-17T19:08:31.288Z,2.72
2019-05-17T19:11:01.304Z,3.45
2019-05-17T19:13:31.418Z,3.70
2019-05-17T19:16:01.436Z,1.82
2019-05-17T19:18:31.612Z,3.35
2019-05-17T19:21:01.698Z,2.42
2019-05-17T19:23:31.668Z,2.85
2019-05-17T19:26:01.753Z,3.25
2019-05-17T19:28:31.865Z,2.37
2019-05-17T19:31:01.948Z,3.15
2019-05-17T19:33:31.992Z,4.55
2019-05-17T19:36:02.142Z,2.67
2019-05-17T19:38:32.260Z,5.47
2019-05-17T19:41:02.348Z,6.47
2019-05-17T19:43:32.468Z,2.75
2019-05-17T19:46:02.559Z,3.98
2019-05-17T19:48:32.749Z,2.50
2019-05-17T19:51:02.889Z,2.70
2019-05-17T19:53:33.017Z,3.10
2019-05-17T19:56:03.034Z,4.12
2019-05-17T19:58:33.148Z,3.02
2019-05-17T20:01:03.102Z,3.20
2019-05-17T20:03:33.218Z,3.45
2019-05-17T20:06:03.369Z,4.40
2019-05-17T20:08:33.328Z,3.20
2019-05-17T20:11:03.488Z,3.05
2019-05-17T20:13:33.645Z,3.35
2019-05-17T20:16:04.265Z,3.75
2019-05-17T20:18:34.432Z,3.05
2019-05-17T20:21:04.516Z,5.05
2019-05-17T20:23:34.769Z,4.83
2019-05-17T20:26:04.855Z,2.90
2019-05-17T20:28:34.895Z,3.15
2019-05-17T20:31:05.052Z,5.90
2019-05-17T20:33:35.044Z,3.35
2019-05-17T20:36:05.128Z,4.28
2019-05-17T20:38:35.209Z,4.95
2019-05-17T20:41:05.399Z,2.87
2019-05-17T20:43:35.410Z,4.80
2019-05-17T20:46:05.588Z,3.58
2019-05-17T20:48:35.604Z,3.20
2019-05-17T20:51:05.788Z,3.10
2019-05-17T20:53:35.928Z,5.47
2019-05-17T20:56:05.971Z,3.50
2019-05-17T20:58:36.005Z,3.70
2019-05-17T21:01:06.279Z,5.45
2019-05-17T21:03:36.288Z,6.83
2019-05-17T21:06:06.395Z,2.62
2019-05-17T21:08:45.488Z,3.87
2019-05-17T21:11:08.080Z,2.70
2019-05-17T21:13:38.096Z,4.87
2019-05-17T21:16:08.216Z,2.75
2019-05-17T21:18:38.182Z,3.95
2019-05-17T21:21:08.393Z,3.72
2019-05-17T21:23:38.431Z,3.67
2019-05-17T21:26:08.472Z,3.00
2019-05-17T21:28:38.585Z,4.15
2019-05-17T21:31:08.668Z,3.27
2019-05-17T21:33:38.728Z,2.87
2019-05-17T21:36:08.803Z,3.37
2019-05-17T21:38:38.723Z,3.72
2019-05-17T21:41:08.672Z,4.50
2019-05-17T21:43:38.711Z,3.33
2019-05-17T21:46:08.736Z,3.77
2019-05-17T21:48:38.703Z,4.17
2019-05-17T21:51:08.813Z,5.25
2019-05-17T21:53:38.920Z,5.58
2019-05-17T21:56:09.030Z,4.47
2019-05-17T21:58:39.040Z,5.30
2019-05-17T22:01:15.057Z,4.40
2019-05-17T22:03:45.312Z,3.95
2019-05-17T22:06:15.520Z,3.65
2019-05-17T22:08:45.798Z,4.42
2019-05-17T22:11:15.846Z,3.85
2019-05-17T22:13:45.926Z,3.70
2019-05-17T22:16:19.703Z,3.67
2019-05-17T22:18:47.739Z,6.20
2019-05-17T22:21:17.906Z,4.92
2019-05-17T22:23:47.861Z,5.95
2019-05-17T22:26:17.912Z,5.92
2019-05-17T22:28:47.860Z,5.70
2019-05-17T22:31:17.976Z,5.35
2019-05-17T22:33:48.057Z,3.90
2019-05-17T22:36:18.273Z,5.50
2019-05-17T22:38:48.230Z,5.53
2019-05-17T22:41:18.333Z,5.58
2019-05-17T22:43:48.382Z,6.00
2019-05-17T22:46:18.489Z,5.80
2019-05-17T22:48:48.531Z,7.53
2019-05-17T22:51:18.615Z,5.70
2019-05-17T22:53:48.732Z,7.78
2019-05-17T22:56:18.821Z,6.85
2019-05-17T22:58:48.967Z,6.72
2019-05-17T23:01:19.027Z,5.40
2019-05-17T23:03:49.079Z,7.37
2019-05-17T23:06:19.118Z,5.45
2019-05-17T23:08:49.223Z,6.12
2019-05-17T23:11:19.238Z,8.10
2019-05-17T23:13:49.207Z,6.42
2019-05-17T23:16:19.292Z,5.35
2019-05-17T23:19:08.879Z,7.05
2019-05-17T23:21:39.619Z,6.85
2019-05-17T23:24:09.732Z,6.58
2019-05-17T23:26:39.815Z,4.75
2019-05-17T23:29:09.862Z,6.25
2019-05-17T23:31:39.809Z,7.62
2019-05-17T23:34:09.853Z,6.37
2019-05-17T23:36:39.886Z,6.85
2019-05-17T23:39:09.971Z,6.50
2019-05-17T23:41:40.080Z,6.30
2019-05-17T23:44:10.091Z,6.53
2019-05-17T23:46:40.123Z,9.85
2019-05-17T23:49:10.145Z,8.90
2019-05-17T23:51:40.183Z,12.45
2019-05-17T23:54:10.273Z,9.58
2019-05-17T23:56:40.245Z,11.80
2019-05-17T23:59:10.427Z,9.53
